Time;durP1;ratioP1;P1;durP2;ratioP2;P2;SDS_P1;SDS_P2;PMS_P1;PMS_P2;Temp;Humidity;BMP_temperature;BMP_pressure;BME280_temperature;BME280_humidity;BME280_pressure;Samples;Min_cycle;Max_cycle;Signal;HPM_P1;HPM_P2
2021/04/12 00:01:23;;;;;;;0.4;0.4;;;;;;;9.31;64.95313;934.8933;;;;
2021/04/12 00:03:48;;;;;;;0.4;0.3;;;;;;;9.43;64.66406;934.8898;;;;
2021/04/12 00:06:13;;;;;;;0.6;0.3;;;;;;;9.46;64.01855;934.867;;;;
2021/04/12 00:08:38;;;;;;;0.2;0.2;;;;;;;9.52;63.66309;934.7483;;;;
2021/04/12 00:11:04;;;;;;;0.3;0.3;;;;;;;9.46;64.09863;934.8367;;;;
2021/04/12 00:13:29;;;;;;;0.3;0.3;;;;;;;9.42;64.76367;934.8745;;;;
2021/04/12 00:16:07;;;;;;;0.2;0.2;;;;;;;9.42;65.62891;934.8269;;;;
2021/04/12 00:18:39;;;;;;;0.3;0.3;;;;;;;9.46;65.68164;934.8352;;;;
2021/04/12 00:21:05;;;;;;;0.3;0.3;;;;;;;9.39;66.08008;934.8129;;;;
2021/04/12 00:23:30;;;;;;;0.7;0.5;;;;;;;9.36;66.16699;934.7372;;;;
2021/04/12 00:25:55;;;;;;;0.3;0.3;;;;;;;9.37;65.98633;934.7238;;;;
2021/04/12 00:28:20;;;;;;;0.6;0.6;;;;;;;9.31;65.85254;934.8281;;;;
2021/04/12 00:30:45;;;;;;;0.8;0.2;;;;;;;9.47;65.3623;934.8709;;;;
2021/04/12 00:33:10;;;;;;;1.5;0.4;;;;;;;9.61;65.1582;934.8486;;;;
2021/04/12 00:35:35;;;;;;;1.1;0.2;;;;;;;9.58;66.32715;934.9188;;;;
2021/04/12 00:38:00;;;;;;;1.1;0.6;;;;;;;9.66;65.27832;934.891;;;;
2021/04/12 00:40:26;;;;;;;0.4;0.4;;;;;;;9.68;65.32715;934.9207;;;;
2021/04/12 00:42:51;;;;;;;0.3;0.3;;;;;;;9.65;66.26855;934.9713;;;;
2021/04/12 00:45:18;;;;;;;0.9;0.4;;;;;;;9.41;67.41699;935.0006;;;;
2021/04/12 00:47:44;;;;;;;0.5;0.2;;;;;;;9.15;68.27539;935.0417;;;;
2021/04/12 00:50:09;;;;;;;0.3;0.3;;;;;;;8.89;68.74512;935.0651;;;;
2021/04/12 00:52:34;;;;;;;0.2;0.2;;;;;;;9.09;67.83301;935.038;;;;
2021/04/12 00:54:59;;;;;;;0.3;0.3;;;;;;;9.34;67.62207;935.0803;;;;
2021/04/12 00:57:24;;;;;;;0.5;0.3;;;;;;;9.43;67.25;935.1013;;;;
2021/04/12 00:59:50;;;;;;;1;0.6;;;;;;;9.59;66.44238;935.0834;;;;
2021/04/12 01:02:15;;;;;;;0.3;0.3;;;;;;;9.74;65.78125;935.0435;;;;
2021/04/12 01:04:40;;;;;;;0.9;0.2;;;;;;;9.83;65.63379;935.0269;;;;
2021/04/12 01:07:05;;;;;;;0.4;0.4;;;;;;;9.91;66.28613;934.994;;;;
2021/04/12 01:09:30;;;;;;;0.3;0.2;;;;;;;9.85;66.04785;935.035;;;;
2021/04/12 01:11:58;;;;;;;0.8;0.3;;;;;;;9.73;65.0957;935.0474;;;;
2021/04/12 01:14:28;;;;;;;0.2;0.2;;;;;;;9.48;66.23047;935.0252;;;;
2021/04/12 01:16:57;;;;;;;0.8;0.3;;;;;;;9.36;66.63379;935.0438;;;;
2021/04/12 01:19:25;;;;;;;0.3;0.3;;;;;;;9.3;66.13574;934.8741;;;;
2021/04/12 01:21:50;;;;;;;0;0;;;;;;;9.38;65.75;934.9852;;;;
2021/04/12 01:24:15;;;;;;;0.1;0.1;;;;;;;9.53;65.4873;934.9621;;;;
2021/04/12 01:26:41;;;;;;;0.3;0.3;;;;;;;9.48;65.95703;934.9847;;;;
2021/04/12 01:29:06;;;;;;;0.2;0.2;;;;;;;9.68;65.29297;934.9889;;;;
2021/04/12 01:31:39;;;;;;;0.2;0.1;;;;;;;9.85;64.63477;934.9658;;;;
2021/04/12 01:34:04;;;;;;;0.6;0.3;;;;;;;9.87;64.74121;934.9691;;;;
2021/04/12 01:36:29;;;;;;;0.1;0.1;;;;;;;9.83;64.90723;934.9386;;;;
2021/04/12 01:38:54;;;;;;;0;0;;;;;;;9.87;64.45508;934.9635;;;;
2021/04/12 01:41:19;;;;;;;1.2;0.4;;;;;;;9.73;63.74121;934.9671;;;;
2021/04/12 01:43:45;;;;;;;0.8;0.4;;;;;;;9.77;64.26953;934.93;;;;
2021/04/12 01:46:10;;;;;;;0.4;0.4;;;;;;;9.82;64.35742;934.9242;;;;
2021/04/12 01:48:35;;;;;;;0.5;0.3;;;;;;;9.8;64.72949;935.0287;;;;
2021/04/12 01:51:00;;;;;;;0.8;0.3;;;;;;;9.81;64.78906;935.0161;;;;
2021/04/12 01:53:25;;;;;;;0.5;0.4;;;;;;;9.97;64.24316;935.0564;;;;
2021/04/12 01:55:50;;;;;;;0.9;0.3;;;;;;;10.06;64.25684;935.0899;;;;
2021/04/12 01:58:15;;;;;;;0.1;0.1;;;;;;;9.94;63.49707;935.1063;;;;
2021/04/12 02:00:43;;;;;;;0.5;0.4;;;;;;;9.84;62.99316;935.0858;;;;
2021/04/12 02:03:08;;;;;;;0.1;0.1;;;;;;;9.78;62.70898;935.0771;;;;
2021/04/12 02:05:35;;;;;;;0.3;0.3;;;;;;;9.7;63.04004;935.1131;;;;
2021/04/12 02:08:00;;;;;;;0.3;0.2;;;;;;;9.8;63.04395;935.0686;;;;
2021/04/12 02:10:25;;;;;;;0.2;0.1;;;;;;;9.86;63.62109;935.0581;;;;
2021/04/12 02:12:51;;;;;;;0.3;0.3;;;;;;;10;62.91309;935.1839;;;;
2021/04/12 02:15:31;;;;;;;2.8;0.2;;;;;;;10.06;62.7168;935.2012;;;;
2021/04/12 02:17:58;;;;;;;0.3;0.2;;;;;;;10.19;63.36426;935.2355;;;;
2021/04/12 02:20:23;;;;;;;0.9;0.5;;;;;;;10.21;63.11426;935.2115;;;;
2021/04/12 02:22:54;;;;;;;0.2;0.2;;;;;;;10.12;63.69434;935.2151;;;;
2021/04/12 02:25:20;;;;;;;0.1;0.1;;;;;;;10.03;64.49219;935.2528;;;;
2021/04/12 02:27:49;;;;;;;0.1;0.1;;;;;;;9.86;65.29883;935.3309;;;;
2021/04/12 02:30:15;;;;;;;0.3;0.3;;;;;;;9.63;66.43652;935.2827;;;;
2021/04/12 02:32:40;;;;;;;0.3;0.3;;;;;;;9.59;66.76172;935.3162;;;;
2021/04/12 02:35:05;;;;;;;0.1;0.1;;;;;;;9.55;66.46875;935.3358;;;;
2021/04/12 02:37:30;;;;;;;0.5;0.4;;;;;;;9.64;66.75684;935.3806;;;;
2021/04/12 02:39:55;;;;;;;0.8;0.4;;;;;;;9.76;67.13965;935.3656;;;;
2021/04/12 02:42:22;;;;;;;0.3;0.3;;;;;;;9.61;67.8584;935.3442;;;;
2021/04/12 02:44:47;;;;;;;1.3;0.5;;;;;;;9.52;66.14551;935.3022;;;;
2021/04/12 02:47:12;;;;;;;0.4;0.3;;;;;;;9.57;65.9375;935.2883;;;;
2021/04/12 02:49:37;;;;;;;0.3;0.3;;;;;;;9.69;65.31836;935.323;;;;
2021/04/12 02:52:02;;;;;;;0.2;0.2;;;;;;;9.77;65.04395;935.322;;;;
2021/04/12 02:54:27;;;;;;;0.5;0.4;;;;;;;9.86;65.29883;935.2576;;;;
2021/04/12 02:56:53;;;;;;;1.5;0.5;;;;;;;9.97;65.74707;935.2433;;;;
2021/04/12 02:59:18;;;;;;;0.2;0.2;;;;;;;10.03;64.87891;935.1406;;;;
2021/04/12 03:01:43;;;;;;;3.6;0.3;;;;;;;10.04;64.45801;935.1653;;;;
2021/04/12 03:04:10;;;;;;;0.2;0.2;;;;;;;10.07;65.14746;935.1647;;;;
2021/04/12 03:06:36;;;;;;;0.2;0.2;;;;;;;10.07;65.5127;935.1409;;;;
2021/04/12 03:09:01;;;;;;;1.1;0.6;;;;;;;10.05;66.35254;935.2497;;;;
2021/04/12 03:11:26;;;;;;;0.5;0.4;;;;;;;9.87;65.20703;935.2625;;;;
2021/04/12 03:13:51;;;;;;;0.4;0.4;;;;;;;9.66;66.08789;935.2964;;;;
2021/04/12 03:16:18;;;;;;;0.6;0.4;;;;;;;9.71;65.9248;935.308;;;;
2021/04/12 03:18:43;;;;;;;0.6;0.5;;;;;;;9.83;64.97363;935.2894;;;;
2021/04/12 03:21:09;;;;;;;0.3;0.3;;;;;;;9.89;64.92676;935.3041;;;;
2021/04/12 03:23:34;;;;;;;0.4;0.3;;;;;;;9.96;64.71973;935.2377;;;;
2021/04/12 03:26:01;;;;;;;1.4;0.6;;;;;;;10.02;64.51172;935.31;;;;
2021/04/12 03:28:28;;;;;;;0.5;0.5;;;;;;;10.02;65.36914;935.3831;;;;
2021/04/12 03:30:53;;;;;;;0.4;0.3;;;;;;;10;64.70313;935.4535;;;;
2021/04/12 03:33:21;;;;;;;0.8;0.7;;;;;;;10.04;65.82617;935.4175;;;;
2021/04/12 03:35:47;;;;;;;0.4;0.3;;;;;;;10.13;66.41016;935.4602;;;;
2021/04/12 03:38:12;;;;;;;0.4;0.3;;;;;;;10.1;65.33398;935.3829;;;;
2021/04/12 03:40:37;;;;;;;1.8;0.4;;;;;;;10.16;65.59473;935.4397;;;;
2021/04/12 03:43:03;;;;;;;2.5;0.6;;;;;;;10.13;65.94434;935.4341;;;;
2021/04/12 03:45:31;;;;;;;0.7;0.6;;;;;;;10.12;65.3252;935.4283;;;;
2021/04/12 03:47:57;;;;;;;0.7;0.4;;;;;;;10.12;66.02148;935.4673;;;;
2021/04/12 03:50:22;;;;;;;0.8;0.3;;;;;;;10.08;65.08008;935.3787;;;;
2021/04/12 03:52:48;;;;;;;0.8;0.4;;;;;;;9.89;65.91797;935.4384;;;;
2021/04/12 03:55:13;;;;;;;0.8;0.4;;;;;;;9.81;66.46484;935.5107;;;;
2021/04/12 03:57:39;;;;;;;0.5;0.3;;;;;;;9.78;67.07617;935.5129;;;;
2021/04/12 04:02:28;;;;;;;0.4;0.4;;;;;;;9.84;66.89063;935.5724;;;;
2021/04/12 04:04:54;;;;;;;0.3;0.3;;;;;;;9.96;66.7373;935.6139;;;;
2021/04/12 04:07:22;;;;;;;4.3;0.7;;;;;;;10.05;66.60352;935.5377;;;;
2021/04/12 04:09:47;;;;;;;1.6;0.6;;;;;;;10.08;66.60742;935.6309;;;;
2021/04/12 04:12:16;;;;;;;0.9;0.6;;;;;;;10.06;66.63867;935.6531;;;;
2021/04/12 04:14:41;;;;;;;0.7;0.5;;;;;;;10.1;66.39453;935.608;;;;
2021/04/12 04:17:13;;;;;;;0.6;0.5;;;;;;;10.18;66.60156;935.6492;;;;
2021/04/12 04:19:41;;;;;;;0.7;0.6;;;;;;;10.16;67.81934;935.68;;;;
2021/04/12 04:22:06;;;;;;;0.8;0.4;;;;;;;10.19;68.24707;935.6858;;;;
2021/04/12 04:24:36;;;;;;;2.1;1.3;;;;;;;10.13;68.49805;935.6544;;;;
2021/04/12 04:27:01;;;;;;;2.6;2;;;;;;;10.18;68.90625;935.7271;;;;
2021/04/12 04:29:27;;;;;;;1.2;0.9;;;;;;;10.1;68.77832;935.7321;;;;
2021/04/12 04:31:52;;;;;;;0.6;0.4;;;;;;;9.85;72.74023;935.6965;;;;
2021/04/12 04:34:18;;;;;;;0.7;0.6;;;;;;;9.93;72.6377;935.7918;;;;
2021/04/12 04:36:44;;;;;;;0.9;0.7;;;;;;;9.96;74.9248;935.8684;;;;
2021/04/12 04:39:09;;;;;;;1.2;1.1;;;;;;;9.8;80.4375;935.8939;;;;
2021/04/12 04:41:34;;;;;;;1.5;1.1;;;;;;;9.73;82.96582;935.9537;;;;
2021/04/12 04:43:59;;;;;;;1;0.9;;;;;;;9.8;82.94336;935.9066;;;;
2021/04/12 04:46:25;;;;;;;1.6;1.2;;;;;;;9.85;83.25;935.9614;;;;
2021/04/12 04:48:51;;;;;;;0.8;0.8;;;;;;;9.86;83.31055;935.9344;;;;
2021/04/12 04:51:17;;;;;;;0.7;0.6;;;;;;;9.8;83.86816;936.0227;;;;
2021/04/12 04:53:42;;;;;;;0.9;0.8;;;;;;;9.73;84.19629;936.0276;;;;
2021/04/12 04:56:07;;;;;;;0.9;0.9;;;;;;;9.72;84.76465;936.0649;;;;
2021/04/12 04:58:32;;;;;;;2;1;;;;;;;9.47;86.25195;936.0958;;;;
2021/04/12 05:00:59;;;;;;;0.4;0.4;;;;;;;9.53;85.10156;936.1097;;;;
2021/04/12 05:03:24;;;;;;;1.7;0.6;;;;;;;9.4;85.12207;936.1153;;;;
2021/04/12 05:05:50;;;;;;;0.5;0.5;;;;;;;9.29;84.89746;936.1031;;;;
2021/04/12 05:08:15;;;;;;;0.3;0.3;;;;;;;9.28;84.80469;936.3033;;;;
2021/04/12 05:10:40;;;;;;;0.3;0.3;;;;;;;9.3;83.93164;936.3003;;;;
2021/04/12 05:13:10;;;;;;;0.8;0.4;;;;;;;9.02;86.32324;936.4056;;;;
2021/04/12 05:15:52;;;;;;;0.2;0.2;;;;;;;8.99;86.96387;936.3684;;;;
2021/04/12 05:18:20;;;;;;;0.7;0.3;;;;;;;8.77;88.18066;936.4375;;;;
2021/04/12 05:20:49;;;;;;;0.4;0.3;;;;;;;8.69;87.83594;936.454;;;;
2021/04/12 05:23:14;;;;;;;7.7;0.3;;;;;;;8.8;88.55176;936.5825;;;;
2021/04/12 05:25:44;;;;;;;0.2;0.2;;;;;;;8.77;87.55762;936.6845;;;;
2021/04/12 05:28:10;;;;;;;0.1;0.1;;;;;;;8.58;88.45117;936.7872;;;;
2021/04/12 05:30:37;;;;;;;0.8;0.3;;;;;;;8.53;88.62109;936.8563;;;;
2021/04/12 05:33:00;;;;;;;0.2;0.2;;;;;;;8.22;88.22852;936.8716;;;;
2021/04/12 05:35:25;;;;;;;0.1;0.1;;;;;;;8.12;87.33398;936.8055;;;;
2021/04/12 05:37:51;;;;;;;0;0;;;;;;;8.11;85.7998;937.0226;;;;
2021/04/12 05:40:16;;;;;;;0;0;;;;;;;7.94;85.23047;937.0614;;;;
2021/04/12 05:42:41;;;;;;;0.1;0.1;;;;;;;7.97;85.21289;937.1895;;;;
2021/04/12 05:45:06;;;;;;;0;0;;;;;;;8.01;82.89453;937.1522;;;;
2021/04/12 05:47:32;;;;;;;0.1;0.1;;;;;;;8.05;82.05176;937.323;;;;
2021/04/12 05:49:57;;;;;;;0;0;;;;;;;8.22;82.40137;937.3134;;;;
2021/04/12 05:52:22;;;;;;;0.2;0.1;;;;;;;8.04;81.16309;937.5248;;;;
2021/04/12 05:54:47;;;;;;;0.1;0.1;;;;;;;7.9;80.03906;937.5428;;;;
2021/04/12 05:57:12;;;;;;;0.2;0.1;;;;;;;7.43;81.53613;937.7067;;;;
2021/04/12 05:59:40;;;;;;;0.2;0.2;;;;;;;7.31;82.0127;937.548;;;;
2021/04/12 06:02:23;;;;;;;0.1;0.1;;;;;;;7.13;81.33301;937.8464;;;;
2021/04/12 06:04:48;;;;;;;0.4;0.1;;;;;;;7.07;80.74316;937.9149;;;;
2021/04/12 06:07:15;;;;;;;0;0;;;;;;;7.07;79.24805;937.91;;;;
2021/04/12 06:09:40;;;;;;;0.1;0.1;;;;;;;7.14;79.52148;938.0414;;;;
2021/04/12 06:12:11;;;;;;;0.1;0.1;;;;;;;7.16;78.49414;938.1479;;;;
2021/04/12 06:14:52;;;;;;;0;0;;;;;;;7.14;78.28906;938.2783;;;;
2021/04/12 06:17:26;;;;;;;0.1;0.1;;;;;;;6.93;79.49512;938.4584;;;;
2021/04/12 06:19:55;;;;;;;0;0;;;;;;;6.54;80.27148;938.3963;;;;
2021/04/12 06:22:23;;;;;;;0;0;;;;;;;6.48;80.91504;938.5666;;;;
2021/04/12 06:24:52;;;;;;;0.1;0.1;;;;;;;6.26;80.71582;938.2736;;;;
2021/04/12 06:27:18;;;;;;;0.1;0.1;;;;;;;6.26;80.28516;938.7637;;;;
2021/04/12 06:29:52;;;;;;;0;0;;;;;;;6.29;80.17871;938.8279;;;;
2021/04/12 06:33:25;;;;;;;0;0;;;;;;;6.27;79.92676;938.8716;;;;
2021/04/12 06:35:51;;;;;;;0.1;0.1;;;;;;;5.92;80.24512;939.0655;;;;
2021/04/12 06:38:16;;;;;;;0;0;;;;;;;5.89;81.03027;939.1156;;;;
2021/04/12 06:40:41;;;;;;;0;0;;;;;;;5.85;80.12988;939.1596;;;;
2021/04/12 06:43:08;;;;;;;0.2;0.2;;;;;;;5.69;82.23438;939.2195;;;;
2021/04/12 06:45:33;;;;;;;0;0;;;;;;;5.61;81.83496;939.3452;;;;
2021/04/12 06:48:11;;;;;;;0;0;;;;;;;5.59;82.74609;939.3481;;;;
2021/04/12 06:50:36;;;;;;;0.1;0.1;;;;;;;5.58;82.99121;939.5011;;;;
2021/04/12 06:53:01;;;;;;;0.1;0.1;;;;;;;5.61;82.41309;939.5119;;;;
2021/04/12 06:55:26;;;;;;;0.2;0.2;;;;;;;5.59;82.59961;939.6387;;;;
2021/04/12 06:57:52;;;;;;;0.1;0.1;;;;;;;5.46;82.90039;939.7098;;;;
2021/04/12 07:00:18;;;;;;;0.1;0.1;;;;;;;5.38;83.08789;939.8429;;;;
2021/04/12 07:02:43;;;;;;;0;0;;;;;;;5.39;83.15723;939.8455;;;;
2021/04/12 07:05:09;;;;;;;0.1;0.1;;;;;;;5.11;83.52148;940.0316;;;;
2021/04/12 07:07:33;;;;;;;0;0;;;;;;;;;;;;;
2021/04/12 07:09:59;;;;;;;0.5;0.2;;;;;;;;;;;;;
2021/04/12 07:12:24;;;;;;;0.1;0.1;;;;;;;;;;;;;
2021/04/12 07:14:49;;;;;;;0.2;0.2;;;;;;;;;;;;;
2021/04/12 07:17:14;;;;;;;0.2;0.2;;;;;;;;;;;;;
2021/04/12 07:19:41;;;;;;;0.1;0.1;;;;;;;;;;;;;
2021/04/12 07:22:07;;;;;;;0.1;0.1;;;;;;;;;;;;;
2021/04/12 07:24:32;;;;;;;0.1;0.1;;;;;;;;;;;;;
2021/04/12 07:26:57;;;;;;;0;0;;;;;;;;;;;;;
2021/04/12 07:29:23;;;;;;;0.2;0.2;;;;;;;;;;;;;
2021/04/12 07:31:48;;;;;;;0.1;0.1;;;;;;;;;;;;;
2021/04/12 07:34:13;;;;;;;0.1;0.1;;;;;;;;;;;;;
2021/04/12 07:36:38;;;;;;;0.1;0.1;;;;;;;;;;;;;
2021/04/12 07:39:03;;;;;;;0.3;0.2;;;;;;;;;;;;;
2021/04/12 07:41:29;;;;;;;0.1;0.1;;;;;;;;;;;;;
2021/04/12 07:43:55;;;;;;;0.1;0.1;;;;;;;;;;;;;
2021/04/12 07:46:23;;;;;;;0.2;0.2;;;;;;;;;;;;;
2021/04/12 07:48:46;;;;;;;0.3;0.3;;;;;;;;;;;;;
2021/04/12 07:51:11;;;;;;;0.2;0.2;;;;;;;;;;;;;
2021/04/12 07:53:36;;;;;;;0.3;0.3;;;;;;;;;;;;;
2021/04/12 07:56:02;;;;;;;0.3;0.3;;;;;;;;;;;;;
2021/04/12 07:58:27;;;;;;;0.4;0.4;;;;;;;;;;;;;
2021/04/12 08:00:52;;;;;;;0.4;0.4;;;;;;;;;;;;;
2021/04/12 08:03:17;;;;;;;0.3;0.3;;;;;;;;;;;;;
2021/04/12 08:05:42;;;;;;;0.7;0.6;;;;;;;;;;;;;
2021/04/12 08:08:08;;;;;;;0.8;0.5;;;;;;;;;;;;;
2021/04/12 08:10:34;;;;;;;0.3;0.3;;;;;;;;;;;;;
2021/04/12 08:12:59;;;;;;;0.3;0.3;;;;;;;;;;;;;
2021/04/12 08:15:29;;;;;;;0.5;0.4;;;;;;;;;;;;;
2021/04/12 08:17:54;;;;;;;0.1;0.1;;;;;;;;;;;;;
2021/04/12 08:20:23;;;;;;;0.4;0.3;;;;;;;;;;;;;
2021/04/12 08:22:48;;;;;;;0.2;0.2;;;;;;;;;;;;;
2021/04/12 08:25:13;;;;;;;0.2;0.2;;;;;;;;;;;;;
2021/04/12 08:27:38;;;;;;;0.4;0.4;;;;;;;;;;;;;
2021/04/12 08:30:04;;;;;;;0.7;0.4;;;;;;;;;;;;;
2021/04/12 08:32:29;;;;;;;0.6;0.5;;;;;;;;;;;;;
2021/04/12 08:34:54;;;;;;;0.5;0.5;;;;;;;;;;;;;
2021/04/12 08:37:19;;;;;;;0.3;0.3;;;;;;;;;;;;;
2021/04/12 08:39:44;;;;;;;0.5;0.5;;;;;;;;;;;;;
2021/04/12 08:42:10;;;;;;;0.2;0.2;;;;;;;;;;;;;
2021/04/12 08:44:35;;;;;;;0.3;0.3;;;;;;;;;;;;;
2021/04/12 08:47:00;;;;;;;0.2;0.2;;;;;;;;;;;;;
2021/04/12 08:49:25;;;;;;;0.2;0.2;;;;;;;;;;;;;
2021/04/12 08:51:50;;;;;;;0.1;0.1;;;;;;;;;;;;;
2021/04/12 08:54:15;;;;;;;0.2;0.2;;;;;;;;;;;;;
2021/04/12 08:56:41;;;;;;;0.2;0.2;;;;;;;;;;;;;
2021/04/12 08:59:06;;;;;;;0.3;0.3;;;;;;;;;;;;;
2021/04/12 09:01:31;;;;;;;0.2;0.2;;;;;;;;;;;;;
2021/04/12 09:03:57;;;;;;;0.1;0.1;;;;;;;;;;;;;
2021/04/12 09:06:22;;;;;;;0.1;0.1;;;;;;;;;;;;;
2021/04/12 09:08:47;;;;;;;0.2;0.2;;;;;;;;;;;;;
2021/04/12 09:11:12;;;;;;;0.1;0.1;;;;;;;;;;;;;
2021/04/12 09:13:38;;;;;;;0.3;0.3;;;;;;;;;;;;;
2021/04/12 09:16:06;;;;;;;0.6;0.3;;;;;;;;;;;;;
2021/04/12 09:18:35;;;;;;;0.2;0.2;;;;;;;;;;;;;
2021/04/12 09:21:00;;;;;;;0.2;0.2;;;;;;;;;;;;;
2021/04/12 09:23:25;;;;;;;0.3;0.3;;;;;;;;;;;;;
2021/04/12 09:25:51;;;;;;;0.3;0.2;;;;;;;;;;;;;
2021/04/12 09:28:16;;;;;;;0.2;0.2;;;;;;;;;;;;;
2021/04/12 09:30:41;;;;;;;0.3;0.3;;;;;;;;;;;;;
2021/04/12 09:33:06;;;;;;;0.2;0.2;;;;;;;;;;;;;
2021/04/12 09:35:31;;;;;;;0.2;0.2;;;;;;;;;;;;;
2021/04/12 09:37:56;;;;;;;0.5;0.4;;;;;;;;;;;;;
2021/04/12 09:40:22;;;;;;;0.9;0.4;;;;;;;;;;;;;
2021/04/12 09:42:48;;;;;;;0.7;0.6;;;;;;;;;;;;;
2021/04/12 09:45:15;;;;;;;0.5;0.5;;;;;;;;;;;;;
2021/04/12 09:47:41;;;;;;;0.6;0.4;;;;;;;;;;;;;
2021/04/12 09:50:06;;;;;;;0.3;0.3;;;;;;;;;;;;;
2021/04/12 09:52:31;;;;;;;0.6;0.5;;;;;;;;;;;;;
2021/04/12 09:54:56;;;;;;;0.6;0.5;;;;;;;;;;;;;
2021/04/12 09:57:21;;;;;;;0.8;0.8;;;;;;;;;;;;;
2021/04/12 09:59:47;;;;;;;0.5;0.5;;;;;;;;;;;;;
2021/04/12 10:02:12;;;;;;;0.5;0.5;;;;;;;;;;;;;
2021/04/12 10:04:37;;;;;;;0.4;0.2;;;;;;;;;;;;;
2021/04/12 10:07:03;;;;;;;0.2;0.2;;;;;;;;;;;;;
2021/04/12 10:09:28;;;;;;;0.7;0.7;;;;;;;;;;;;;
2021/04/12 10:11:55;;;;;;;0.3;0.3;;;;;;;;;;;;;
2021/04/12 10:14:20;;;;;;;0.5;0.5;;;;;;;;;;;;;
2021/04/12 10:16:46;;;;;;;0.3;0.3;;;;;;;;;;;;;
2021/04/12 10:19:11;;;;;;;1.6;0.6;;;;;;;;;;;;;
2021/04/12 10:21:38;;;;;;;0.3;0.3;;;;;;;;;;;;;
2021/04/12 10:24:03;;;;;;;0.3;0.3;;;;;;;;;;;;;
2021/04/12 10:26:28;;;;;;;0.5;0.3;;;;;;;;;;;;;
2021/04/12 10:28:53;;;;;;;0.8;0.5;;;;;;;;;;;;;
2021/04/12 10:31:21;;;;;;;0.4;0.4;;;;;;;;;;;;;
2021/04/12 10:33:44;;;;;;;0.3;0.3;;;;;;;;;;;;;
2021/04/12 10:36:09;;;;;;;0.3;0.3;;;;;;;;;;;;;
2021/04/12 10:38:34;;;;;;;1.1;0.7;;;;;;;;;;;;;
2021/04/12 10:41:00;;;;;;;0.4;0.4;;;;;;;;;;;;;
2021/04/12 10:43:25;;;;;;;0.3;0.3;;;;;;;;;;;;;
2021/04/12 10:45:50;;;;;;;0.9;0.5;;;;;;;;;;;;;
2021/04/12 10:48:15;;;;;;;0.4;0.4;;;;;;;;;;;;;
2021/04/12 10:50:40;;;;;;;0.4;0.4;;;;;;;;;;;;;
2021/04/12 10:53:05;;;;;;;0.6;0.5;;;;;;;;;;;;;
2021/04/12 10:55:32;;;;;;;0.5;0.4;;;;;;;;;;;;;
2021/04/12 10:57:57;;;;;;;0.6;0.6;;;;;;;;;;;;;
2021/04/12 11:00:23;;;;;;;0.6;0.4;;;;;;;;;;;;;
2021/04/12 11:02:50;;;;;;;0.4;0.3;;;;;;;;;;;;;
2021/04/12 11:05:15;;;;;;;0.6;0.5;;;;;;;;;;;;;
2021/04/12 11:07:39;;;;;;;0.4;0.4;;;;;;;;;;;;;
2021/04/12 11:10:05;;;;;;;1.9;0.5;;;;;;;;;;;;;
2021/04/12 11:12:30;;;;;;;0.1;0.1;;;;;;;;;;;;;
2021/04/12 11:14:55;;;;;;;0.4;0.4;;;;;;;;;;;;;
2021/04/12 11:17:21;;;;;;;0.3;0.3;;;;;;;;;;;;;
2021/04/12 11:19:46;;;;;;;0.4;0.3;;;;;;;;;;;;;
2021/04/12 11:22:11;;;;;;;0.3;0.3;;;;;;;;;;;;;
2021/04/12 11:24:36;;;;;;;0.7;0.6;;;;;;;;;;;;;
2021/04/12 11:27:02;;;;;;;0.4;0.3;;;;;;;;;;;;;
2021/04/12 11:29:26;;;;;;;0.3;0.2;;;;;;;;;;;;;
2021/04/12 11:31:52;;;;;;;1.3;0.3;;;;;;;;;;;;;
2021/04/12 11:34:17;;;;;;;0.3;0.3;;;;;;;;;;;;;
2021/04/12 11:36:42;;;;;;;0.2;0.2;;;;;;;;;;;;;
2021/04/12 11:39:08;;;;;;;0.3;0.3;;;;;;;;;;;;;
2021/04/12 11:41:33;;;;;;;0.5;0.5;;;;;;;;;;;;;
2021/04/12 11:43:58;;;;;;;0.4;0.4;;;;;;;;;;;;;
2021/04/12 11:46:23;;;;;;;0.5;0.4;;;;;;;;;;;;;
2021/04/12 11:48:49;;;;;;;0.6;0.4;;;;;;;;;;;;;
2021/04/12 11:51:14;;;;;;;0.5;0.5;;;;;;;;;;;;;
2021/04/12 11:53:39;;;;;;;1.1;0.7;;;;;;;;;;;;;
2021/04/12 11:56:04;;;;;;;0.4;0.4;;;;;;;;;;;;;
2021/04/12 11:58:29;;;;;;;0.4;0.4;;;;;;;;;;;;;
2021/04/12 12:00:55;;;;;;;0.6;0.5;;;;;;;;;;;;;
2021/04/12 12:03:19;;;;;;;0.4;0.4;;;;;;;;;;;;;
2021/04/12 12:05:45;;;;;;;0.5;0.4;;;;;;;;;;;;;
2021/04/12 12:08:10;;;;;;;0.7;0.6;;;;;;;;;;;;;
2021/04/12 12:10:35;;;;;;;0.5;0.5;;;;;;;;;;;;;
2021/04/12 12:13:00;;;;;;;0.7;0.7;;;;;;;;;;;;;
2021/04/12 12:15:26;;;;;;;0.9;0.5;;;;;;;;;;;;;
2021/04/12 12:17:51;;;;;;;1.1;0.5;;;;;;;;;;;;;
2021/04/12 12:20:17;;;;;;;0.3;0.3;;;;;;;;;;;;;
2021/04/12 12:22:42;;;;;;;0.6;0.6;;;;;;;;;;;;;
2021/04/12 12:25:07;;;;;;;0.5;0.5;;;;;;;;;;;;;
2021/04/12 12:27:32;;;;;;;0.3;0.3;;;;;;;;;;;;;
2021/04/12 12:29:57;;;;;;;0.5;0.5;;;;;;;;;;;;;
2021/04/12 12:32:22;;;;;;;0.7;0.6;;;;;;;;;;;;;
2021/04/12 12:34:47;;;;;;;0.4;0.4;;;;;;;;;;;;;
2021/04/12 12:37:13;;;;;;;0.5;0.5;;;;;;;;;;;;;
2021/04/12 12:39:39;;;;;;;1.4;0.7;;;;;;;;;;;;;
2021/04/12 12:42:04;;;;;;;0.4;0.4;;;;;;;;;;;;;
2021/04/12 12:44:30;;;;;;;0.7;0.7;;;;;;;;;;;;;
2021/04/12 12:46:55;;;;;;;0.8;0.6;;;;;;;;;;;;;
2021/04/12 12:49:21;;;;;;;1.2;0.7;;;;;;;;;;;;;
2021/04/12 12:51:47;;;;;;;0.6;0.6;;;;;;;;;;;;;
2021/04/12 12:54:13;;;;;;;1.5;1;;;;;;;;;;;;;
2021/04/12 12:56:38;;;;;;;2.6;1.1;;;;;;;;;;;;;
2021/04/12 12:59:03;;;;;;;0.8;0.7;;;;;;;;;;;;;
2021/04/12 13:01:28;;;;;;;1.1;0.9;;;;;;;;;;;;;
2021/04/12 13:03:53;;;;;;;2.5;0.8;;;;;;;;;;;;;
2021/04/12 13:06:19;;;;;;;1.1;0.9;;;;;;;;;;;;;
2021/04/12 13:08:45;;;;;;;1.1;0.9;;;;;;;;;;;;;
2021/04/12 13:11:09;;;;;;;0.9;0.8;;;;;;;;;;;;;
2021/04/12 13:13:34;;;;;;;1.1;1;;;;;;;;;;;;;
2021/04/12 13:16:02;;;;;;;1;0.8;;;;;;;;;;;;;
2021/04/12 13:18:25;;;;;;;1.1;0.9;;;;;;;;;;;;;
2021/04/12 13:20:50;;;;;;;0.8;0.8;;;;;;;;;;;;;
2021/04/12 13:23:15;;;;;;;0.6;0.6;;;;;;;;;;;;;
2021/04/12 13:25:40;;;;;;;0.5;0.4;;;;;;;;;;;;;
2021/04/12 13:28:08;;;;;;;3.5;1;;;;;;;;;;;;;
2021/04/12 13:30:31;;;;;;;1.3;1;;;;;;;;;;;;;
2021/04/12 13:32:59;;;;;;;0.9;0.8;;;;;;;;;;;;;
2021/04/12 13:35:22;;;;;;;1.1;1;;;;;;;;;;;;;
2021/04/12 13:37:48;;;;;;;0.9;0.7;;;;;;;;;;;;;
2021/04/12 13:40:13;;;;;;;1.2;0.7;;;;;;;;;;;;;
2021/04/12 13:42:39;;;;;;;0.8;0.7;;;;;;;;;;;;;
2021/04/12 13:45:04;;;;;;;0.7;0.7;;;;;;;;;;;;;
2021/04/12 13:47:29;;;;;;;1.1;1;;;;;;;;;;;;;
2021/04/12 13:49:56;;;;;;;0.7;0.6;;;;;;;;;;;;;
2021/04/12 13:52:20;;;;;;;0.9;0.8;;;;;;;;;;;;;
2021/04/12 13:54:45;;;;;;;1.2;0.8;;;;;;;;;;;;;
2021/04/12 13:57:10;;;;;;;1;0.9;;;;;;;;;;;;;
2021/04/12 13:59:35;;;;;;;0.8;0.8;;;;;;;;;;;;;
2021/04/12 14:02:00;;;;;;;1.5;1;;;;;;;;;;;;;
2021/04/12 14:04:26;;;;;;;1.5;1;;;;;;;;;;;;;
2021/04/12 14:06:51;;;;;;;1.1;0.8;;;;;;;;;;;;;
2021/04/12 14:09:16;;;;;;;1;0.7;;;;;;;;;;;;;
2021/04/12 14:11:42;;;;;;;0.7;0.7;;;;;;;;;;;;;
2021/04/12 14:14:07;;;;;;;1.3;0.9;;;;;;;;;;;;;
2021/04/12 14:16:33;;;;;;;1.4;0.7;;;;;;;;;;;;;
2021/04/12 14:18:59;;;;;;;1;0.9;;;;;;;;;;;;;
2021/04/12 14:21:25;;;;;;;0.9;0.8;;;;;;;;;;;;;
2021/04/12 14:23:50;;;;;;;0.8;0.8;;;;;;;;;;;;;
2021/04/12 14:26:17;;;;;;;0.8;0.7;;;;;;;;;;;;;
2021/04/12 14:28:42;;;;;;;0.7;0.6;;;;;;;;;;;;;
2021/04/12 14:31:08;;;;;;;1.2;1.1;;;;;;;;;;;;;
2021/04/12 14:33:33;;;;;;;0.8;0.8;;;;;;;;;;;;;
2021/04/12 14:35:58;;;;;;;1.3;1;;;;;;;;;;;;;
2021/04/12 14:38:23;;;;;;;0.7;0.7;;;;;;;;;;;;;
2021/04/12 14:40:48;;;;;;;1;0.8;;;;;;;;;;;;;
2021/04/12 14:43:14;;;;;;;0.4;0.4;;;;;;;;;;;;;
2021/04/12 14:45:39;;;;;;;0.7;0.7;;;;;;;;;;;;;
2021/04/12 14:48:04;;;;;;;1;0.9;;;;;;;;;;;;;
2021/04/12 14:50:30;;;;;;;0.6;0.6;;;;;;;;;;;;;
2021/04/12 14:52:54;;;;;;;0.8;0.7;;;;;;;;;;;;;
2021/04/12 14:55:20;;;;;;;1.3;0.9;;;;;;;;;;;;;
2021/04/12 14:57:45;;;;;;;0.7;0.7;;;;;;;;;;;;;
2021/04/12 15:00:10;;;;;;;0.8;0.7;;;;;;;;;;;;;
2021/04/12 15:02:36;;;;;;;1;0.9;;;;;;;;;;;;;
2021/04/12 15:05:01;;;;;;;3.1;0.8;;;;;;;;;;;;;
2021/04/12 15:07:26;;;;;;;1.3;1.1;;;;;;;;;;;;;
2021/04/12 15:09:51;;;;;;;1.5;1.1;;;;;;;;;;;;;
2021/04/12 15:12:16;;;;;;;1.5;0.9;;;;;;;;;;;;;
2021/04/12 15:14:42;;;;;;;0.8;0.8;;;;;;;;;;;;;
2021/04/12 15:17:07;;;;;;;1.2;0.9;;;;;;;;;;;;;
2021/04/12 15:19:33;;;;;;;0.7;0.7;;;;;;;;;;;;;
2021/04/12 15:21:58;;;;;;;1.9;1.2;;;;;;;;;;;;;
2021/04/12 15:24:23;;;;;;;1.8;1;;;;;;;;;;;;;
2021/04/12 15:26:48;;;;;;;1.5;0.9;;;;;;;;;;;;;
2021/04/12 15:29:13;;;;;;;1.2;1.1;;;;;;;;;;;;;
2021/04/12 15:31:39;;;;;;;1.4;1.1;;;;;;;;;;;;;
2021/04/12 15:34:03;;;;;;;1.4;1;;;;;;;;;;;;;
2021/04/12 15:36:29;;;;;;;1.4;1.2;;;;;;;;;;;;;
2021/04/12 15:38:54;;;;;;;1.2;1.1;;;;;;;;;;;;;
2021/04/12 15:41:19;;;;;;;4.3;1.5;;;;;;;;;;;;;
2021/04/12 15:43:45;;;;;;;1.7;1.2;;;;;;;;;;;;;
2021/04/12 15:46:10;;;;;;;1.1;1;;;;;;;;;;;;;
2021/04/12 15:48:35;;;;;;;1.8;1;;;;;;;;;;;;;
2021/04/12 15:51:01;;;;;;;2.4;1.4;;;;;;;;;;;;;
2021/04/12 15:53:27;;;;;;;2.4;1.4;;;;;;;;;;;;;
2021/04/12 15:55:52;;;;;;;2.9;1.2;;;;;;;;;;;;;
2021/04/12 15:58:17;;;;;;;1.7;1.2;;;;;;;;;;;;;
2021/04/12 16:00:43;;;;;;;0.9;0.9;;;;;;;;;;;;;
2021/04/12 16:03:09;;;;;;;1.3;1.1;;;;;;;;;;;;;
2021/04/12 16:05:33;;;;;;;1;0.9;;;;;;;;;;;;;
2021/04/12 16:07:59;;;;;;;1.4;1.2;;;;;;;;;;;;;
2021/04/12 16:10:23;;;;;;;1.8;1.3;;;;;;;;;;;;;
2021/04/12 16:12:48;;;;;;;1.7;1.2;;;;;;;;;;;;;
2021/04/12 16:15:13;;;;;;;1.6;1.3;;;;;;;;;;;;;
2021/04/12 16:17:39;;;;;;;1.3;1.1;;;;;;;;;;;;;
2021/04/12 16:20:04;;;;;;;2.2;1;;;;;;;;;;;;;
2021/04/12 16:22:29;;;;;;;2.4;1.2;;;;;;;;;;;;;
2021/04/12 16:24:54;;;;;;;1.2;1;;;;;;;;;;;;;
2021/04/12 16:27:19;;;;;;;1.3;0.9;;;;;;;;;;;;;
2021/04/12 16:29:45;;;;;;;1.6;1.3;;;;;;;;;;;;;
2021/04/12 16:32:10;;;;;;;2.2;1.1;;;;;;;;;;;;;
2021/04/12 16:34:35;;;;;;;2.1;1.2;;;;;;;;;;;;;
2021/04/12 16:37:00;;;;;;;0.7;0.7;;;;;;;;;;;;;
2021/04/12 16:39:26;;;;;;;1.2;1.1;;;;;;;;;;;;;
2021/04/12 16:41:51;;;;;;;0.8;0.8;;;;;;;;;;;;;
2021/04/12 16:44:16;;;;;;;1.2;1;;;;;;;;;;;;;
2021/04/12 16:46:41;;;;;;;1.4;1;;;;;;;;;;;;;
2021/04/12 16:49:06;;;;;;;1.2;1;;;;;;;;;;;;;
2021/04/12 16:51:32;;;;;;;1.2;1;;;;;;;;;;;;;
2021/04/12 16:53:58;;;;;;;1.2;0.8;;;;;;;;;;;;;
2021/04/12 16:56:22;;;;;;;2.7;1.1;;;;;;;;;;;;;
2021/04/12 16:58:47;;;;;;;1.1;1;;;;;;;;;;;;;
2021/04/12 17:01:14;;;;;;;1;0.9;;;;;;;;;;;;;
2021/04/12 17:03:40;;;;;;;2.2;1.4;;;;;;;;;;;;;
2021/04/12 17:06:03;;;;;;;1.4;1;;;;;;;;;;;;;
2021/04/12 17:08:31;;;;;;;3.5;1.2;;;;;;;;;;;;;
2021/04/12 17:10:55;;;;;;;1.2;1;;;;;;;;;;;;;
2021/04/12 17:13:19;;;;;;;1.4;1.2;;;;;;;;;;;;;
2021/04/12 17:15:47;;;;;;;2.8;1.8;;;;;;;;;;;;;
2021/04/12 17:18:09;;;;;;;2.3;1.4;;;;;;;;;;;;;
2021/04/12 17:20:35;;;;;;;1.1;1;;;;;;;;;;;;;
2021/04/12 17:23:00;;;;;;;1.5;1.4;;;;;;;;;;;;;
2021/04/12 17:25:25;;;;;;;4.4;1.5;;;;;;;;;;;;;
2021/04/12 17:27:50;;;;;;;1.4;1.1;;;;;;;;;;;;;
2021/04/12 17:30:15;;;;;;;1.7;1.1;;;;;;;;;;;;;
2021/04/12 17:32:41;;;;;;;2.6;1.5;;;;;;;;;;;;;
2021/04/12 17:35:06;;;;;;;1.3;1.1;;;;;;;;;;;;;
2021/04/12 17:37:32;;;;;;;1.8;1.3;;;;;;;;;;;;;
2021/04/12 17:39:57;;;;;;;1.1;1;;;;;;;;;;;;;
2021/04/12 17:42:25;;;;;;;2.1;1.3;;;;;;;;;;;;;